Time;durP1;ratioP1;P1;durP2;ratioP2;P2;SDS_P1;SDS_P2;PMS_P1;PMS_P2;Temp;Humidity;BMP_temperature;BMP_pressure;BME280_temperature;BME280_humidity;BME280_pressure;Samples;Min_cycle;Max_cycle;Signal;HPM_P1;HPM_P2
2020/12/10 00:01:09;;;;;;;44.13;24.95;;;19.00;41.50;;;;;;4965899;28;20198;-64
2020/12/10 00:03:35;;;;;;;41.28;23.15;;;19.00;41.50;;;;;;4973914;28;20293;-65
2020/12/10 00:06:01;;;;;;;46.22;24.98;;;18.90;41.50;;;;;;4983063;28;20209;-63
2020/12/10 00:08:27;;;;;;;43.00;24.85;;;18.90;41.50;;;;;;4983371;28;20545;-64
2020/12/10 00:10:53;;;;;;;41.47;24.98;;;18.90;41.50;;;;;;4983462;28;20208;-64
2020/12/10 00:13:19;;;;;;;42.35;23.88;;;18.90;41.50;;;;;;4983525;28;20201;-64
2020/12/10 00:15:44;;;;;;;45.65;24.70;;;18.90;41.50;;;;;;4976531;28;21001;-65
2020/12/10 00:18:10;;;;;;;44.92;24.00;;;18.90;41.30;;;;;;4981544;28;20228;-64
2020/12/10 00:20:36;;;;;;;44.45;25.60;;;18.90;42.30;;;;;;4977008;28;20252;-64
2020/12/10 00:23:02;;;;;;;45.42;26.63;;;18.80;41.80;;;;;;4980646;28;20186;-64
2020/12/10 00:25:27;;;;;;;42.55;25.98;;;18.80;41.40;;;;;;4968960;28;20220;-64
2020/12/10 00:27:53;;;;;;;38.28;24.92;;;18.80;41.60;;;;;;4978547;28;20189;-63
2020/12/10 00:30:19;;;;;;;41.28;24.27;;;18.80;41.90;;;;;;4982848;28;20189;-63
2020/12/10 00:32:44;;;;;;;47.88;26.40;;;18.90;41.70;;;;;;4982357;28;20630;-64
2020/12/10 00:35:10;;;;;;;44.97;26.33;;;18.90;41.50;;;;;;4982592;28;20402;-64
2020/12/10 00:37:37;;;;;;;44.55;24.58;;;18.80;41.50;;;;;;4975058;28;20193;-63
2020/12/10 00:40:07;;;;;;;40.85;23.58;;;18.70;41.60;;;;;;4974371;28;20258;-65
2020/12/10 00:42:33;;;;;;;46.58;27.60;;;18.70;41.40;;;;;;4982956;28;20593;-64
2020/12/10 00:44:58;;;;;;;47.33;26.58;;;18.60;41.60;;;;;;4982519;28;20206;-64
2020/12/10 00:47:24;;;;;;;44.15;26.15;;;18.50;41.60;;;;;;4981073;28;20721;-64
2020/12/10 00:49:54;;;;;;;43.05;26.60;;;18.60;42.70;;;;;;4980975;28;20751;-63
2020/12/10 00:52:24;;;;;;;41.83;25.15;;;18.60;41.90;;;;;;4980599;28;20198;-65
2020/12/10 00:54:51;;;;;;;41.90;24.52;;;18.60;41.80;;;;;;4965315;28;20888;-64
2020/12/10 00:57:17;;;;;;;44.30;25.02;;;18.60;41.80;;;;;;4981034;28;20193;-63
2020/12/10 00:59:42;;;;;;;47.03;27.10;;;18.50;41.80;;;;;;4972457;28;20770;-63
2020/12/10 01:02:08;;;;;;;44.45;25.90;;;18.50;42.10;;;;;;4982017;28;20182;-64
2020/12/10 01:04:34;;;;;;;41.70;24.25;;;18.50;42.10;;;;;;4982320;28;20932;-64
2020/12/10 01:07:00;;;;;;;47.45;33.95;;;18.40;42.00;;;;;;4974265;28;20255;-63
2020/12/10 01:09:26;;;;;;;43.97;25.40;;;18.40;42.30;;;;;;4981933;28;20189;-64
2020/12/10 01:11:51;;;;;;;42.92;24.95;;;18.40;41.80;;;;;;4981880;28;20771;-64
2020/12/10 01:14:20;;;;;;;43.83;26.92;;;18.20;41.90;;;;;;4980744;28;20598;-65
2020/12/10 01:16:46;;;;;;;45.83;24.50;;;18.10;42.30;;;;;;4974101;28;20239;-64
2020/12/10 01:19:13;;;;;;;44.22;25.67;;;18.10;42.40;;;;;;4981512;28;20209;-64
2020/12/10 01:21:39;;;;;;;41.17;25.17;;;18.20;42.40;;;;;;4966537;28;20186;-64
2020/12/10 01:24:04;;;;;;;43.63;24.42;;;18.30;42.30;;;;;;4979939;28;20247;-64
2020/12/10 01:26:34;;;;;;;45.20;24.40;;;18.40;41.90;;;;;;4977745;28;20197;-64
2020/12/10 01:29:02;;;;;;;45.25;25.08;;;18.30;42.20;;;;;;4973690;28;20558;-64
2020/12/10 01:31:28;;;;;;;43.10;25.00;;;18.20;42.00;;;;;;4977284;28;21034;-64
2020/12/10 01:33:54;;;;;;;45.95;25.90;;;18.30;42.20;;;;;;4978227;28;20189;-64
2020/12/10 01:36:24;;;;;;;43.40;26.50;;;18.30;41.90;;;;;;4973000;28;20224;-64
2020/12/10 01:38:51;;;;;;;44.47;28.20;;;18.20;41.60;;;;;;4981230;28;20201;-65
2020/12/10 01:41:19;;;;;;;45.88;25.35;;;17.90;41.70;;;;;;4980915;28;20190;-64
2020/12/10 01:43:45;;;;;;;46.78;26.23;;;18.00;42.50;;;;;;4965433;28;20205;-65
2020/12/10 01:46:11;;;;;;;43.78;24.88;;;18.00;42.50;;;;;;4979965;28;20217;-64
2020/12/10 01:48:37;;;;;;;41.58;24.30;;;18.10;42.00;;;;;;4973507;28;20216;-64
2020/12/10 01:51:04;;;;;;;42.60;25.48;;;18.10;42.00;;;;;;4980984;28;20193;-64
2020/12/10 01:53:30;;;;;;;41.58;25.13;;;18.10;42.50;;;;;;4977286;28;20717;-64
2020/12/10 01:55:56;;;;;;;44.92;25.23;;;18.20;42.70;;;;;;4969655;28;20206;-64
2020/12/10 01:58:22;;;;;;;42.40;23.95;;;18.20;42.00;;;;;;4981580;28;20673;-64
2020/12/10 02:00:50;;;;;;;46.45;23.95;;;18.20;42.20;;;;;;4982299;28;20185;-65
2020/12/10 02:03:16;;;;;;;44.05;24.70;;;18.20;42.10;;;;;;4980507;28;20194;-65
2020/12/10 02:05:46;;;;;;;43.00;25.52;;;18.30;42.20;;;;;;4966778;28;20215;-65
2020/12/10 02:08:12;;;;;;;44.33;23.02;;;18.20;42.00;;;;;;4980769;28;20189;-64
2020/12/10 02:10:38;;;;;;;41.30;23.60;;;18.20;41.90;;;;;;4974037;28;20708;-64
2020/12/10 02:13:04;;;;;;;41.33;23.77;;;18.20;42.20;;;;;;4982188;28;20225;-64
2020/12/10 02:15:33;;;;;;;43.63;24.90;;;18.10;42.10;;;;;;4982619;28;20701;-64
2020/12/10 02:18:11;;;;;;;45.00;24.48;;;18.20;42.00;;;;;;4964075;28;20191;-63
2020/12/10 02:20:37;;;;;;;44.05;23.60;;;18.00;42.20;;;;;;4981483;28;20190;-63
2020/12/10 02:23:05;;;;;;;39.00;21.67;;;17.90;42.50;;;;;;4980840;28;20221;-63
2020/12/10 02:25:31;;;;;;;45.22;23.17;;;18.00;43.00;;;;;;4974293;28;20232;-65
2020/12/10 02:27:59;;;;;;;42.85;23.65;;;18.20;42.30;;;;;;4975825;28;20182;-63
2020/12/10 02:30:25;;;;;;;42.20;22.80;;;18.20;42.10;;;;;;4984908;28;20256;-64
2020/12/10 02:32:58;;;;;;;36.88;23.00;;;18.30;42.10;;;;;;4984325;28;20840;-64
2020/12/10 02:35:26;;;;;;;43.08;26.42;;;18.40;42.00;;;;;;4976616;28;20690;-64
2020/12/10 02:37:53;;;;;;;42.33;23.90;;;18.50;41.80;;;;;;4984155;28;20259;-64
2020/12/10 02:40:19;;;;;;;41.45;24.65;;;18.40;41.80;;;;;;4976096;28;20200;-64
2020/12/10 02:42:45;;;;;;;43.95;24.42;;;18.40;42.00;;;;;;4983492;28;20186;-65
2020/12/10 02:45:10;;;;;;;42.28;24.95;;;18.30;42.40;;;;;;4985072;28;20690;-64
2020/12/10 02:47:36;;;;;;;40.28;22.45;;;18.40;41.90;;;;;;4969785;28;20277;-65
2020/12/10 02:50:03;;;;;;;43.65;23.42;;;18.30;41.60;;;;;;4982354;28;20189;-64
2020/12/10 02:52:29;;;;;;;43.63;25.92;;;18.30;41.60;;;;;;4985697;28;20257;-64
2020/12/10 02:54:55;;;;;;;46.15;25.83;;;18.40;41.50;;;;;;4983533;28;20214;-64
2020/12/10 02:57:20;;;;;;;42.95;24.27;;;18.40;41.60;;;;;;4977586;28;20216;-65
2020/12/10 02:59:46;;;;;;;47.05;27.13;;;18.30;41.50;;;;;;4978338;28;20214;-65
2020/12/10 03:02:11;;;;;;;49.17;27.92;;;18.40;41.60;;;;;;4975531;28;20308;-65
2020/12/10 03:04:37;;;;;;;44.33;29.08;;;18.40;41.90;;;;;;4975711;28;20218;-65
2020/12/10 03:07:03;;;;;;;46.30;26.38;;;18.40;41.80;;;;;;4984882;28;20233;-64
2020/12/10 03:09:28;;;;;;;44.35;28.27;;;18.30;41.40;;;;;;4984292;28;20213;-64
2020/12/10 03:11:54;;;;;;;45.55;31.50;;;18.20;41.80;;;;;;4977175;28;20237;-64
2020/12/10 03:14:20;;;;;;;50.60;33.95;;;18.10;41.70;;;;;;4976327;28;20229;-64
2020/12/10 03:16:45;;;;;;;49.42;31.15;;;18.10;41.20;;;;;;4984213;28;20189;-64
2020/12/10 03:19:11;;;;;;;47.33;29.27;;;18.10;42.40;;;;;;4984077;28;20213;-64
2020/12/10 03:21:37;;;;;;;46.03;28.63;;;18.20;41.90;;;;;;4976844;28;20256;-62
2020/12/10 03:24:02;;;;;;;47.30;28.75;;;18.30;41.70;;;;;;4982894;28;20209;-64
2020/12/10 03:26:28;;;;;;;49.13;26.88;;;18.30;42.20;;;;;;4974309;28;20194;-64
2020/12/10 03:28:54;;;;;;;48.55;29.45;;;18.20;42.90;;;;;;4984201;28;20276;-64
2020/12/10 03:31:19;;;;;;;44.40;26.63;;;18.30;41.50;;;;;;4974341;28;20657;-64
2020/12/10 03:33:45;;;;;;;46.97;25.95;;;18.30;41.80;;;;;;4976513;28;20193;-64
2020/12/10 03:36:11;;;;;;;46.75;25.00;;;18.30;41.50;;;;;;4983512;28;20635;-64
2020/12/10 03:38:36;;;;;;;43.00;25.42;;;18.30;41.70;;;;;;4983712;28;20681;-64
2020/12/10 03:41:04;;;;;;;46.45;25.13;;;18.30;41.50;;;;;;4976060;28;20245;-65
2020/12/10 03:43:30;;;;;;;45.70;26.55;;;18.30;41.50;;;;;;4984228;28;20217;-65
2020/12/10 03:45:56;;;;;;;45.22;27.15;;;18.20;41.60;;;;;;4983963;28;20237;-65
2020/12/10 03:48:21;;;;;;;45.63;25.67;;;18.20;41.20;;;;;;4983625;28;20181;-65
2020/12/10 03:50:47;;;;;;;47.70;25.95;;;18.30;41.80;;;;;;4983701;28;20400;-65
2020/12/10 03:53:13;;;;;;;43.50;22.95;;;18.20;41.60;;;;;;4984215;28;20197;-65
2020/12/10 03:55:38;;;;;;;43.72;25.25;;;18.10;41.90;;;;;;4983255;28;20312;-65
2020/12/10 03:58:04;;;;;;;47.70;26.75;;;18.00;42.10;;;;;;4975902;28;20198;-65
2020/12/10 04:00:30;;;;;;;48.20;25.42;;;18.10;41.40;;;;;;4969273;28;20654;-65
2020/12/10 04:02:55;;;;;;;44.08;23.15;;;18.00;41.80;;;;;;4978867;28;20263;-65
2020/12/10 04:05:21;;;;;;;46.45;25.30;;;18.00;42.30;;;;;;4983663;28;20623;-64
2020/12/10 04:07:47;;;;;;;44.08;25.00;;;18.10;41.90;;;;;;4983491;28;20595;-64
2020/12/10 04:10:12;;;;;;;48.45;26.20;;;18.20;42.90;;;;;;4982602;28;20196;-64
2020/12/10 04:12:38;;;;;;;42.92;22.60;;;18.20;44.20;;;;;;4983402;28;20193;-64
2020/12/10 04:15:04;;;;;;;44.97;26.10;;;18.20;45.10;;;;;;4982396;28;20232;-64
2020/12/10 04:17:29;;;;;;;50.30;25.27;;;18.40;44.00;;;;;;4968200;28;20220;-65
2020/12/10 04:19:55;;;;;;;51.65;26.05;;;18.40;43.50;;;;;;4965649;28;21103;-65
2020/12/10 04:22:21;;;;;;;49.13;26.90;;;18.50;44.90;;;;;;4975192;28;20186;-64
2020/12/10 04:24:47;;;;;;;47.28;25.30;;;18.40;44.60;;;;;;4983160;28;20212;-64
2020/12/10 04:27:12;;;;;;;53.47;29.50;;;18.40;45.30;;;;;;4983419;28;20189;-64
2020/12/10 04:29:38;;;;;;;62.17;35.15;;;18.50;45.10;;;;;;4983243;28;20228;-63
2020/12/10 04:32:04;;;;;;;64.47;40.80;;;18.60;45.30;;;;;;4983415;28;20194;-65
2020/12/10 04:34:29;;;;;;;69.10;40.20;;;18.70;44.90;;;;;;4983689;28;20216;-64
2020/12/10 04:36:55;;;;;;;79.75;42.25;;;18.90;43.80;;;;;;4983219;28;20677;-64
2020/12/10 04:39:20;;;;;;;76.20;45.15;;;18.80;42.90;;;;;;4975211;28;20209;-65
2020/12/10 04:41:47;;;;;;;83.28;46.22;;;18.70;42.80;;;;;;4983597;28;20852;-65
2020/12/10 04:44:13;;;;;;;80.07;45.50;;;18.70;42.90;;;;;;4983765;28;20740;-66
2020/12/10 04:46:40;;;;;;;91.47;49.05;;;18.80;43.10;;;;;;4983533;28;20186;-68
2020/12/10 04:49:06;;;;;;;84.25;58.35;;;18.80;43.00;;;;;;4982464;28;20197;-65
2020/12/10 04:51:34;;;;;;;86.88;56.25;;;18.80;43.30;;;;;;4983340;28;20185;-66
2020/12/10 04:54:03;;;;;;;84.20;58.63;;;18.70;43.20;;;;;;4982329;28;20197;-66
2020/12/10 04:56:29;;;;;;;85.85;59.40;;;18.80;43.30;;;;;;4983211;28;20217;-66
2020/12/10 04:58:55;;;;;;;85.28;57.20;;;18.90;42.80;;;;;;4975031;28;20264;-66
2020/12/10 05:01:22;;;;;;;83.32;57.38;;;18.90;42.40;;;;;;4974427;28;20229;-65
2020/12/10 05:07:38;;;;;;;80.57;51.75;;;18.90;42.70;;;;;;4982525;28;20692;-67
2020/12/10 05:10:04;;;;;;;79.43;47.65;;;18.90;41.90;;;;;;4982847;28;20927;-66
2020/12/10 05:12:30;;;;;;;76.03;48.10;;;18.90;42.40;;;;;;4982145;28;20276;-65
2020/12/10 05:14:56;;;;;;;82.82;46.50;;;18.90;41.40;;;;;;4982456;28;20227;-66
2020/12/10 05:17:21;;;;;;;76.55;41.92;;;18.80;41.30;;;;;;4982377;28;20555;-67
2020/12/10 05:19:57;;;;;;;74.93;40.53;;;18.60;41.90;;;;;;4981232;28;20323;-65
2020/12/10 05:22:24;;;;;;;69.93;39.15;;;18.50;41.90;;;;;;4971482;28;20186;-66
2020/12/10 05:25:03;;;;;;;70.50;39.70;;;18.60;41.90;;;;;;4980568;28;20249;-65
2020/12/10 05:27:30;;;;;;;69.63;41.10;;;18.40;42.20;;;;;;4969937;28;20189;-65
2020/12/10 05:29:55;;;;;;;72.38;48.70;;;18.40;42.50;;;;;;4978427;28;20190;-65
2020/12/10 05:32:30;;;;;;;71.18;47.33;;;18.60;41.80;;;;;;4980066;28;20206;-72
2020/12/10 05:34:56;;;;;;;69.05;46.38;;;18.60;42.80;;;;;;4981478;28;20328;-66
2020/12/10 05:37:30;;;;;;;70.13;45.92;;;18.70;42.80;;;;;;4982723;28;20185;-66
2020/12/10 05:40:02;;;;;;;69.78;43.42;;;18.80;44.20;;;;;;4981838;28;20332;-66
2020/12/10 05:42:38;;;;;;;65.57;39.00;;;18.80;43.80;;;;;;4982478;28;20185;-66
2020/12/10 05:45:10;;;;;;;65.20;42.28;;;18.90;42.70;;;;;;4973598;28;20280;-65
2020/12/10 05:47:44;;;;;;;71.50;44.33;;;18.80;42.60;;;;;;4972641;28;20193;-65
2020/12/10 05:50:12;;;;;;;69.15;42.63;;;18.70;42.40;;;;;;4981955;28;20255;-65
2020/12/10 05:52:42;;;;;;;70.20;39.50;;;18.70;42.80;;;;;;4980692;28;20317;-65
2020/12/10 05:55:08;;;;;;;66.35;39.70;;;18.90;42.10;;;;;;4981990;28;20263;-65
2020/12/10 05:57:34;;;;;;;72.32;43.78;;;18.80;42.50;;;;;;4981349;28;20646;-65
2020/12/10 06:00:03;;;;;;;64.28;42.30;;;18.70;42.00;;;;;;4981229;28;20267;-66
2020/12/10 06:02:30;;;;;;;63.80;36.88;;;18.70;42.80;;;;;;4977779;28;20994;-66
2020/12/10 06:04:57;;;;;;;61.60;33.60;;;18.60;42.00;;;;;;4985503;28;20264;-64
2020/12/10 06:07:23;;;;;;;59.90;33.97;;;18.70;42.10;;;;;;4978763;28;20190;-64
2020/12/10 06:09:49;;;;;;;63.10;35.92;;;18.70;42.30;;;;;;4985071;28;20931;-64
2020/12/10 06:12:15;;;;;;;58.42;32.90;;;18.80;42.60;;;;;;4985149;28;20256;-65
2020/12/10 06:15:00;;;;;;;58.50;40.03;;;18.80;43.20;;;;;;4984850;28;20353;-65
2020/12/10 06:17:26;;;;;;;63.65;36.55;;;18.80;42.50;;;;;;4985269;28;20194;-65
2020/12/10 06:19:52;;;;;;;62.15;35.92;;;18.90;41.30;;;;;;4984897;28;20312;-65
2020/12/10 06:22:27;;;;;;;67.10;37.33;;;18.90;41.40;;;;;;4984489;28;20185;-65
2020/12/10 06:24:55;;;;;;;64.63;36.85;;;18.80;41.70;;;;;;4985358;28;20209;-64
2020/12/10 06:27:24;;;;;;;67.40;35.28;;;18.80;41.60;;;;;;4977188;28;20201;-66
2020/12/10 06:29:49;;;;;;;58.70;32.25;;;18.80;42.00;;;;;;4986379;28;20204;-66
2020/12/10 06:32:17;;;;;;;62.97;31.25;;;18.80;42.00;;;;;;4987092;28;20194;-65
2020/12/10 06:34:55;;;;;;;58.17;31.17;;;18.70;41.60;;;;;;4986093;28;20685;-65
2020/12/10 06:37:28;;;;;;;52.72;29.05;;;18.80;42.30;;;;;;4978395;28;20548;-66
2020/12/10 06:39:58;;;;;;;56.20;29.77;;;18.70;41.80;;;;;;4977726;28;20209;-65
2020/12/10 06:42:42;;;;;;;62.67;32.05;;;18.80;41.30;;;;;;4978036;28;20186;-65
2020/12/10 06:45:26;;;;;;;54.65;29.63;;;18.70;41.90;;;;;;4985154;28;20377;-67
2020/12/10 06:47:52;;;;;;;57.13;35.25;;;18.70;41.40;;;;;;4985986;28;20189;-64
2020/12/10 06:50:26;;;;;;;55.47;31.17;;;18.80;41.80;;;;;;4985147;28;20209;-66
2020/12/10 06:53:14;;;;;;;57.55;30.25;;;18.90;41.10;;;;;;4984994;28;20716;-65
2020/12/10 06:55:55;;;;;;;56.88;30.10;;;18.90;40.60;;;;;;4979446;28;20209;-65
2020/12/10 06:58:22;;;;;;;56.85;30.48;;;18.90;40.50;;;;;;4976115;28;20224;-65
2020/12/10 07:00:52;;;;;;;57.90;29.27;;;18.90;40.80;;;;;;4984681;28;20606;-66
2020/12/10 07:03:26;;;;;;;53.35;28.23;;;18.90;41.10;;;;;;4983993;28;20189;-65
2020/12/10 07:05:52;;;;;;;58.33;32.83;;;19.00;40.60;;;;;;4984116;28;20209;-65
2020/12/10 07:08:19;;;;;;;53.35;30.48;;;19.00;40.10;;;;;;4984377;28;20280;-69
2020/12/10 07:10:47;;;;;;;59.97;31.65;;;19.00;40.60;;;;;;4973901;28;20202;-65
2020/12/10 07:13:15;;;;;;;59.30;29.98;;;18.80;40.70;;;;;;4980031;28;20193;-65
2020/12/10 07:15:48;;;;;;;59.38;32.60;;;18.90;41.70;;;;;;4977976;28;20789;-65
2020/12/10 07:18:13;;;;;;;55.88;35.13;;;18.90;41.10;;;;;;4980967;28;21087;-66
2020/12/10 07:20:39;;;;;;;56.40;35.75;;;18.90;41.30;;;;;;4983252;28;20201;-73
2020/12/10 07:23:05;;;;;;;55.08;35.38;;;18.80;41.90;;;;;;4982691;28;20185;-65
2020/12/10 07:25:31;;;;;;;54.78;35.15;;;18.90;42.20;;;;;;4982702;28;20582;-65
2020/12/10 07:27:56;;;;;;;56.78;34.50;;;18.90;41.90;;;;;;4981503;28;20185;-65
2020/12/10 07:30:24;;;;;;;48.58;33.83;;;18.90;42.30;;;;;;4984045;28;20225;-65
2020/12/10 07:32:54;;;;;;;52.42;33.75;;;18.90;41.50;;;;;;4984696;28;20364;-64
2020/12/10 07:35:35;;;;;;;51.03;33.22;;;19.00;41.40;;;;;;4984829;28;20267;-64
2020/12/10 07:38:12;;;;;;;53.17;34.53;;;19.00;40.60;;;;;;4984615;28;20186;-64
2020/12/10 07:40:38;;;;;;;61.38;36.28;;;19.00;41.20;;;;;;4984647;28;20203;-64
2020/12/10 07:43:06;;;;;;;55.05;35.33;;;18.90;41.50;;;;;;4985004;28;20196;-65
2020/12/10 07:45:32;;;;;;;60.42;35.22;;;18.90;41.60;;;;;;4983919;28;20205;-64
2020/12/10 07:48:00;;;;;;;62.45;34.00;;;18.90;42.10;;;;;;4984611;28;20272;-65
2020/12/10 07:50:27;;;;;;;59.53;33.83;;;18.80;41.30;;;;;;4984470;28;20189;-65
2020/12/10 07:52:57;;;;;;;54.72;30.23;;;18.80;41.30;;;;;;4983601;28;20240;-65
2020/12/10 07:55:28;;;;;;;51.83;27.65;;;18.70;42.00;;;;;;4990256;28;20260;-65
2020/12/10 07:57:59;;;;;;;55.92;28.52;;;18.80;41.80;;;;;;4984253;28;21075;-64
2020/12/10 08:00:28;;;;;;;50.75;27.52;;;18.70;42.00;;;;;;4983555;28;20216;-64
2020/12/10 08:03:12;;;;;;;57.58;28.23;;;18.80;41.70;;;;;;4967109;28;20246;-65
2020/12/10 08:05:39;;;;;;;52.00;27.58;;;18.90;41.80;;;;;;4978205;28;20201;-64
2020/12/10 08:08:05;;;;;;;50.58;28.60;;;18.80;42.60;;;;;;4983844;28;20192;-65
2020/12/10 08:10:33;;;;;;;46.40;26.98;;;18.90;42.70;;;;;;4983423;28;20178;-65
2020/12/10 08:13:20;;;;;;;47.55;33.45;;;19.20;41.20;;;;;;4983247;28;20194;-65
2020/12/10 08:15:48;;;;;;;54.22;31.85;;;19.20;40.50;;;;;;4982386;28;20432;-65
2020/12/10 08:18:19;;;;;;;55.30;33.63;;;19.10;40.10;;;;;;4983075;28;20193;-65
2020/12/10 08:20:47;;;;;;;57.33;33.45;;;19.10;40.10;;;;;;4983508;28;20193;-64
2020/12/10 08:23:14;;;;;;;55.58;33.63;;;19.10;40.40;;;;;;4981618;28;20189;-64
2020/12/10 08:25:42;;;;;;;53.50;30.02;;;19.00;41.10;;;;;;4982091;28;20627;-65
2020/12/10 08:28:08;;;;;;;47.03;26.27;;;18.90;41.40;;;;;;4983533;28;20281;-65
2020/12/10 08:30:36;;;;;;;50.03;28.17;;;18.90;41.40;;;;;;4982539;28;20190;-65
2020/12/10 08:33:03;;;;;;;55.55;27.63;;;18.90;41.20;;;;;;4983188;28;20221;-64
2020/12/10 08:35:39;;;;;;;54.17;28.00;;;19.00;40.90;;;;;;4982607;28;20586;-65
2020/12/10 08:38:05;;;;;;;51.38;26.48;;;18.90;41.30;;;;;;4982924;28;20221;-65
2020/12/10 08:40:31;;;;;;;47.00;24.35;;;19.10;40.90;;;;;;4980956;28;20270;-66
2020/12/10 08:43:14;;;;;;;50.53;26.35;;;19.10;40.50;;;;;;4983306;28;21002;-66
2020/12/10 08:45:44;;;;;;;55.33;28.25;;;19.20;40.20;;;;;;4983203;28;20213;-65
2020/12/10 08:48:12;;;;;;;57.85;34.25;;;19.30;40.20;;;;;;4982444;28;20228;-65
2020/12/10 08:50:51;;;;;;;57.20;34.45;;;19.20;40.20;;;;;;4981453;28;20451;-65
2020/12/10 08:53:17;;;;;;;63.22;33.20;;;19.10;39.60;;;;;;4982396;28;20185;-65
2020/12/10 08:55:49;;;;;;;55.92;33.63;;;19.00;39.60;;;;;;4975660;28;20198;-64
2020/12/10 08:58:23;;;;;;;54.90;33.38;;;18.90;39.60;;;;;;4962334;28;20213;-65
2020/12/10 09:00:49;;;;;;;56.50;33.22;;;18.90;40.00;;;;;;4978287;28;20279;-64
2020/12/10 09:03:15;;;;;;;52.63;31.95;;;19.00;39.70;;;;;;4980683;28;20225;-65
2020/12/10 09:05:41;;;;;;;55.80;33.80;;;19.00;40.30;;;;;;4983266;28;20236;-66
2020/12/10 09:08:07;;;;;;;53.80;33.28;;;18.70;39.90;;;;;;4982880;28;20189;-66
2020/12/10 09:10:33;;;;;;;51.15;32.05;;;18.70;40.70;;;;;;4981969;28;20189;-68
2020/12/10 09:13:00;;;;;;;50.75;31.25;;;18.60;40.60;;;;;;4982837;28;20194;-73
2020/12/10 09:15:26;;;;;;;51.92;32.25;;;18.50;40.60;;;;;;4973855;28;20231;-65
2020/12/10 09:17:52;;;;;;;58.72;34.42;;;18.40;41.20;;;;;;4981836;28;20194;-63
2020/12/10 09:20:18;;;;;;;54.97;32.63;;;17.00;39.60;;;;;;4981715;28;20267;-63
2020/12/10 09:22:45;;;;;;;53.05;30.65;;;16.20;44.40;;;;;;4982608;28;20262;-63
2020/12/10 09:25:11;;;;;;;49.33;26.15;;;15.90;45.10;;;;;;4981532;28;20208;-66
2020/12/10 09:27:37;;;;;;;53.40;25.60;;;15.80;46.00;;;;;;4978306;28;20205;-63
2020/12/10 09:30:05;;;;;;;54.73;24.67;;;15.80;47.20;;;;;;4980876;28;20623;-64
2020/12/10 09:32:34;;;;;;;46.10;24.23;;;15.80;47.40;;;;;;4981598;28;20299;-65
2020/12/10 09:35:00;;;;;;;49.88;24.08;;;15.80;47.50;;;;;;4981848;28;20241;-63
2020/12/10 09:37:26;;;;;;;47.57;24.10;;;15.80;46.80;;;;;;4980271;28;21117;-67
2020/12/10 09:40:42;;;;;;;184.23;47.30;;;16.40;48.60;;;;;;5062666;27;20571;-67
2020/12/10 09:43:07;;;;;;;101.87;43.40;;;17.20;46.60;;;;;;5031500;28;20191;-68
2020/12/10 09:45:33;;;;;;;84.90;38.97;;;17.90;45.00;;;;;;5058401;28;20204;-68
2020/12/10 09:47:59;;;;;;;80.93;35.00;;;18.30;44.40;;;;;;5049648;28;20792;-72
2020/12/10 09:50:34;;;;;;;83.77;37.20;;;18.40;43.30;;;;;;5040171;28;20287;-71
2020/12/10 09:53:07;;;;;;;82.83;36.33;;;18.60;42.60;;;;;;5024086;28;20231;-71
2020/12/10 09:58:18;;;;;;;84.23;33.73;;;18.50;42.30;;;;;;5056499;28;20203;-74
2020/12/10 10:00:49;;;;;;;89.00;38.27;;;18.50;42.30;;;;;;5057535;28;21060;-67
2020/12/10 10:03:18;;;;;;;75.47;33.03;;;18.60;41.80;;;;;;5058126;28;20195;-69
2020/12/10 10:05:44;;;;;;;76.43;33.63;;;18.60;42.10;;;;;;5056446;28;20209;-69
2020/12/10 10:08:10;;;;;;;82.33;35.80;;;18.60;42.00;;;;;;5039595;28;20199;-70
2020/12/10 10:10:36;;;;;;;75.63;32.30;;;18.60;41.90;;;;;;5052518;28;20253;-70
2020/12/10 10:13:02;;;;;;;76.47;32.60;;;18.70;42.20;;;;;;5046253;28;20187;-70
2020/12/10 10:16:55;;;;;;;71.73;30.50;;;;;;;;;;5047137;28;21205;-70
2020/12/10 10:21:09;;;;;;;76.43;34.97;;;;;;;;;;5063498;27;20891;-69
2020/12/10 10:23:34;;;;;;;75.20;31.43;;;;;;;;;;5069338;28;20184;-64
2020/12/10 10:25:59;;;;;;;69.80;29.97;;;;;;;;;;5061913;28;20278;-64
2020/12/10 10:28:24;;;;;;;72.93;32.07;;;;;;;;;;5070253;28;20195;-63
2020/12/10 10:30:50;;;;;;;73.73;29.60;;;;;;;;;;5062135;28;20203;-63
2020/12/10 10:33:21;;;;;;;71.83;32.30;;;;;;;;;;5066802;28;20724;-63
2020/12/10 10:35:47;;;;;;;75.33;33.03;;;;;;;;;;5064632;28;20603;-63
2020/12/10 10:38:13;;;;;;;78.03;33.00;;;;;;;;;;5058830;28;20178;-64
2020/12/10 10:40:39;;;;;;;72.37;33.00;;;;;;;;;;5062008;28;20914;-64
2020/12/10 10:43:04;;;;;;;72.00;32.07;;;;;;;;;;5061522;28;20222;-63
2020/12/10 10:45:29;;;;;;;80.30;33.40;;;;;;;;;;5072454;28;20298;-64
2020/12/10 10:47:54;;;;;;;69.57;30.77;;;;;;;;;;5073103;28;20201;-64
2020/12/10 10:50:20;;;;;;;73.87;31.33;;;;;;;;;;5065523;28;20211;-64
2020/12/10 10:52:45;;;;;;;80.43;34.77;;;;;;;;;;5055715;28;20298;-63
2020/12/10 10:55:10;;;;;;;72.97;31.30;;;;;;;;;;5057425;28;20210;-64
2020/12/10 10:57:36;;;;;;;79.83;32.57;;;;;;;;;;5065215;28;20178;-64
2020/12/10 11:00:02;;;;;;;78.50;32.10;;;;;;;;;;5056517;28;20267;-63
2020/12/10 11:02:27;;;;;;;80.43;34.20;;;;;;;;;;5057434;28;20646;-63
2020/12/10 11:04:53;;;;;;;81.13;34.57;;;;;;;;;;5066682;28;20212;-63
2020/12/10 11:07:18;;;;;;;86.53;36.40;;;;;;;;;;5057952;28;20265;-63
2020/12/10 11:09:43;;;;;;;84.50;36.03;;;;;;;;;;5058073;28;20188;-63
2020/12/10 11:12:09;;;;;;;78.83;35.90;;;;;;;;;;5058124;28;20183;-64
2020/12/10 11:14:35;;;;;;;73.57;30.20;;;;;;;;;;5064488;28;20324;-63
2020/12/10 11:17:00;;;;;;;75.43;28.63;;;;;;;;;;5061551;28;20198;-64
2020/12/10 11:19:26;;;;;;;78.53;33.17;;;;;;;;;;5055213;28;20218;-62
2020/12/10 11:21:51;;;;;;;79.43;34.77;;;;;;;;;;5059115;28;20182;-64
2020/12/10 11:24:17;;;;;;;76.93;31.50;;;;;;;;;;5058004;28;20206;-63
2020/12/10 11:26:42;;;;;;;80.83;33.70;;;;;;;;;;5058567;28;20183;-64
2020/12/10 11:29:07;;;;;;;78.30;31.20;;;;;;;;;;5057733;28;20218;-64
2020/12/10 11:31:33;;;;;;;74.40;31.60;;;;;;;;;;5048638;28;20210;-65
2020/12/10 11:33:58;;;;;;;62.80;28.07;;;;;;;;;;5044251;28;20267;-64
2020/12/10 11:36:23;;;;;;;73.70;31.37;;;;;;;;;;5049964;28;20194;-64
2020/12/10 11:38:48;;;;;;;74.07;34.83;;;;;;;;;;5040031;28;20683;-65
2020/12/10 11:41:17;;;;;;;71.37;30.87;;;;;;;;;;5042520;28;20198;-64
2020/12/10 11:43:43;;;;;;;77.83;31.97;;;;;;;;;;5043361;28;20193;-65
2020/12/10 11:46:09;;;;;;;84.17;33.70;;;;;;;;;;5043575;28;20212;-64
2020/12/10 11:48:34;;;;;;;74.30;30.80;;;;;;;;;;5051320;28;20267;-64
2020/12/10 11:50:59;;;;;;;79.63;33.83;;;;;;;;;;5048280;28;20230;-64
2020/12/10 11:53:32;;;;;;;82.20;31.10;;;;;;;;;;5043190;28;20188;-63
2020/12/10 11:55:57;;;;;;;74.50;30.97;;;;;;;;;;5043712;28;20738;-64
2020/12/10 11:58:23;;;;;;;80.07;33.63;;;;;;;;;;5049504;28;20291;-63
2020/12/10 12:00:48;;;;;;;74.90;31.87;;;;;;;;;;5047293;28;20200;-62
2020/12/10 12:03:13;;;;;;;73.60;30.73;;;;;;;;;;5044259;28;20180;-63
2020/12/10 12:05:39;;;;;;;74.27;30.10;;;;;;;;;;5051839;28;20211;-63
2020/12/10 12:08:04;;;;;;;79.97;35.23;;;;;;;;;;5044110;28;20221;-62
2020/12/10 12:10:29;;;;;;;75.60;33.33;;;;;;;;;;5036111;28;20191;-62
2020/12/10 12:12:54;;;;;;;70.30;29.90;;;;;;;;;;5044923;28;20205;-63
2020/12/10 12:15:20;;;;;;;69.50;30.83;;;;;;;;;;5043478;28;20223;-63
2020/12/10 12:17:45;;;;;;;77.50;32.63;;;;;;;;;;5042673;28;20204;-63
2020/12/10 12:20:11;;;;;;;77.90;33.43;;;;;;;;;;5044535;28;20224;-62
2020/12/10 12:22:37;;;;;;;74.23;34.70;;;;;;;;;;5054316;28;20182;-63
2020/12/10 12:25:03;;;;;;;74.07;34.27;;;;;;;;;;5045073;28;20304;-62
2020/12/10 12:27:28;;;;;;;68.80;33.07;;;;;;;;;;5037410;28;20211;-63
2020/12/10 12:29:53;;;;;;;73.30;34.33;;;;;;;;;;5042570;28;20239;-63
2020/12/10 12:32:19;;;;;;;72.90;33.93;;;;;;;;;;5051134;28;20189;-63
2020/12/10 12:34:44;;;;;;;73.50;33.20;;;;;;;;;;5041890;28;20216;-63
2020/12/10 12:37:10;;;;;;;72.87;34.10;;;;;;;;;;5043038;28;20662;-64
2020/12/10 12:39:35;;;;;;;76.60;34.23;;;;;;;;;;5041443;28;20860;-63
2020/12/10 12:42:04;;;;;;;79.73;33.63;;;;;;;;;;5049635;28;20266;-63
2020/12/10 12:44:29;;;;;;;76.20;30.33;;;;;;;;;;5041802;28;20208;-63
2020/12/10 12:46:54;;;;;;;83.73;36.10;;;;;;;;;;5042494;28;20177;-63
2020/12/10 12:49:20;;;;;;;81.00;35.43;;;;;;;;;;5048584;28;20210;-63
2020/12/10 12:51:55;;;;;;;82.87;35.53;;;;;;;;;;5049815;28;20197;-63
2020/12/10 12:54:20;;;;;;;77.43;35.93;;;;;;;;;;5058012;28;20211;-63
2020/12/10 12:56:46;;;;;;;82.63;34.90;;;;;;;;;;5048419;28;20249;-63
2020/12/10 12:59:12;;;;;;;88.87;37.07;;;;;;;;;;5051285;28;20218;-63